sensor_id;sensor_type;location;lat;lon;timestamp;P1;durP1;ratioP1;P2;durP2;ratioP2
1410;SDS011;700;51.906;8.404;2022-07-29T00:04:23;4.67;;;2.10;;
1410;SDS011;700;51.906;8.404;2022-07-29T00:09:24;4.60;;;1.60;;
1410;SDS011;700;51.906;8.404;2022-07-29T00:14:30;5.17;;;1.90;;
1410;SDS011;700;51.906;8.404;2022-07-29T00:19:30;6.40;;;1.60;;
1410;SDS011;700;51.906;8.404;2022-07-29T00:24:34;4.87;;;1.70;;
1410;SDS011;700;51.906;8.404;2022-07-29T00:29:34;5.77;;;1.70;;
1410;SDS011;700;51.906;8.404;2022-07-29T00:34:35;7.47;;;1.83;;
1410;SDS011;700;51.906;8.404;2022-07-29T00:39:54;3.13;;;1.63;;
1410;SDS011;700;51.906;8.404;2022-07-29T00:44:55;7.33;;;1.60;;
1410;SDS011;700;51.906;8.404;2022-07-29T00:49:56;3.60;;;1.50;;
1410;SDS011;700;51.906;8.404;2022-07-29T00:54:59;7.17;;;1.77;;
1410;SDS011;700;51.906;8.404;2022-07-29T00:59:59;6.57;;;1.87;;
1410;SDS011;700;51.906;8.404;2022-07-29T01:05:00;5.23;;;1.73;;
1410;SDS011;700;51.906;8.404;2022-07-29T01:10:03;10.50;;;1.67;;
1410;SDS011;700;51.906;8.404;2022-07-29T01:15:07;3.13;;;1.60;;
1410;SDS011;700;51.906;8.404;2022-07-29T01:20:16;5.20;;;2.20;;
1410;SDS011;700;51.906;8.404;2022-07-29T01:31:06;4.20;;;1.90;;
1410;SDS011;700;51.906;8.404;2022-07-29T01:36:13;5.00;;;1.73;;
1410;SDS011;700;51.906;8.404;2022-07-29T01:41:17;4.93;;;1.40;;
1410;SDS011;700;51.906;8.404;2022-07-29T01:46:35;5.83;;;2.03;;
1410;SDS011;700;51.906;8.404;2022-07-29T01:52:13;3.20;;;1.60;;
1410;SDS011;700;51.906;8.404;2022-07-29T01:57:13;4.80;;;1.60;;
1410;SDS011;700;51.906;8.404;2022-07-29T02:02:18;6.03;;;1.33;;
1410;SDS011;700;51.906;8.404;2022-07-29T02:07:21;5.00;;;1.80;;
1410;SDS011;700;51.906;8.404;2022-07-29T02:12:23;3.07;;;1.50;;
1410;SDS011;700;51.906;8.404;2022-07-29T02:17:26;5.27;;;1.73;;
1410;SDS011;700;51.906;8.404;2022-07-29T02:22:48;5.57;;;1.47;;
1410;SDS011;700;51.906;8.404;2022-07-29T02:27:54;4.20;;;1.83;;
1410;SDS011;700;51.906;8.404;2022-07-29T02:32:55;5.17;;;1.83;;
1410;SDS011;700;51.906;8.404;2022-07-29T02:37:57;3.10;;;1.70;;
1410;SDS011;700;51.906;8.404;2022-07-29T02:43:17;4.87;;;1.70;;
1410;SDS011;700;51.906;8.404;2022-07-29T02:48:25;3.33;;;1.37;;
1410;SDS011;700;51.906;8.404;2022-07-29T02:53:32;4.33;;;1.67;;
1410;SDS011;700;51.906;8.404;2022-07-29T02:58:37;4.77;;;1.80;;
1410;SDS011;700;51.906;8.404;2022-07-29T03:03:40;4.87;;;1.97;;
1410;SDS011;700;51.906;8.404;2022-07-29T03:08:44;2.67;;;1.30;;
1410;SDS011;700;51.906;8.404;2022-07-29T03:13:45;2.83;;;1.40;;
1410;SDS011;700;51.906;8.404;2022-07-29T03:18:46;5.40;;;2.80;;
1410;SDS011;700;51.906;8.404;2022-07-29T03:23:47;5.50;;;1.80;;
1410;SDS011;700;51.906;8.404;2022-07-29T03:28:53;5.00;;;1.70;;
1410;SDS011;700;51.906;8.404;2022-07-29T03:33:54;5.13;;;2.00;;
1410;SDS011;700;51.906;8.404;2022-07-29T03:38:55;3.83;;;1.90;;
1410;SDS011;700;51.906;8.404;2022-07-29T03:43:56;5.03;;;2.00;;
1410;SDS011;700;51.906;8.404;2022-07-29T03:49:00;4.27;;;1.67;;
1410;SDS011;700;51.906;8.404;2022-07-29T03:54:05;3.70;;;2.07;;
1410;SDS011;700;51.906;8.404;2022-07-29T03:59:06;5.37;;;2.17;;
1410;SDS011;700;51.906;8.404;2022-07-29T04:04:09;5.60;;;1.80;;
1410;SDS011;700;51.906;8.404;2022-07-29T04:09:10;5.60;;;2.10;;
1410;SDS011;700;51.906;8.404;2022-07-29T04:14:11;5.10;;;1.67;;
1410;SDS011;700;51.906;8.404;2022-07-29T04:19:12;5.20;;;1.70;;
1410;SDS011;700;51.906;8.404;2022-07-29T04:24:13;4.00;;;1.43;;
1410;SDS011;700;51.906;8.404;2022-07-29T04:29:14;5.77;;;1.70;;
1410;SDS011;700;51.906;8.404;2022-07-29T04:34:17;3.40;;;1.80;;
1410;SDS011;700;51.906;8.404;2022-07-29T04:39:17;4.20;;;1.43;;
1410;SDS011;700;51.906;8.404;2022-07-29T04:44:18;4.37;;;2.00;;
1410;SDS011;700;51.906;8.404;2022-07-29T04:49:19;3.93;;;1.67;;
1410;SDS011;700;51.906;8.404;2022-07-29T04:54:20;6.43;;;2.13;;
1410;SDS011;700;51.906;8.404;2022-07-29T04:59:20;3.07;;;1.77;;
1410;SDS011;700;51.906;8.404;2022-07-29T05:04:21;4.43;;;2.07;;
1410;SDS011;700;51.906;8.404;2022-07-29T05:09:22;4.60;;;1.90;;
1410;SDS011;700;51.906;8.404;2022-07-29T05:14:23;4.10;;;1.73;;
1410;SDS011;700;51.906;8.404;2022-07-29T05:19:26;8.70;;;2.43;;
1410;SDS011;700;51.906;8.404;2022-07-29T05:24:27;6.77;;;2.00;;
1410;SDS011;700;51.906;8.404;2022-07-29T05:29:28;4.43;;;1.87;;
1410;SDS011;700;51.906;8.404;2022-07-29T05:34:28;6.70;;;1.60;;
1410;SDS011;700;51.906;8.404;2022-07-29T05:39:29;4.93;;;2.00;;
1410;SDS011;700;51.906;8.404;2022-07-29T05:44:30;8.43;;;1.87;;
1410;SDS011;700;51.906;8.404;2022-07-29T05:49:30;12.23;;;2.40;;
1410;SDS011;700;51.906;8.404;2022-07-29T05:54:31;6.60;;;3.10;;
1410;SDS011;700;51.906;8.404;2022-07-29T05:59:35;9.77;;;3.50;;
1410;SDS011;700;51.906;8.404;2022-07-29T06:04:39;6.30;;;2.00;;
1410;SDS011;700;51.906;8.404;2022-07-29T06:09:39;9.87;;;1.83;;
1410;SDS011;700;51.906;8.404;2022-07-29T06:14:40;3.70;;;1.80;;
1410;SDS011;700;51.906;8.404;2022-07-29T06:19:43;3.83;;;1.87;;
1410;SDS011;700;51.906;8.404;2022-07-29T06:24:44;4.43;;;2.00;;
1410;SDS011;700;51.906;8.404;2022-07-29T06:29:45;7.87;;;1.93;;
1410;SDS011;700;51.906;8.404;2022-07-29T06:34:45;3.33;;;1.70;;
1410;SDS011;700;51.906;8.404;2022-07-29T06:39:46;6.23;;;2.00;;
1410;SDS011;700;51.906;8.404;2022-07-29T06:44:46;4.40;;;1.67;;
1410;SDS011;700;51.906;8.404;2022-07-29T06:49:47;3.83;;;1.70;;
1410;SDS011;700;51.906;8.404;2022-07-29T06:54:50;4.80;;;1.77;;
1410;SDS011;700;51.906;8.404;2022-07-29T06:59:56;4.00;;;1.90;;
1410;SDS011;700;51.906;8.404;2022-07-29T07:04:58;6.47;;;1.97;;
1410;SDS011;700;51.906;8.404;2022-07-29T07:10:02;6.40;;;2.03;;
1410;SDS011;700;51.906;8.404;2022-07-29T07:15:03;4.57;;;2.10;;
1410;SDS011;700;51.906;8.404;2022-07-29T07:20:05;5.37;;;2.10;;
1410;SDS011;700;51.906;8.404;2022-07-29T07:25:06;8.23;;;2.17;;
1410;SDS011;700;51.906;8.404;2022-07-29T07:30:09;4.00;;;1.93;;
1410;SDS011;700;51.906;8.404;2022-07-29T07:35:10;4.37;;;1.90;;
1410;SDS011;700;51.906;8.404;2022-07-29T07:40:11;3.83;;;1.60;;
1410;SDS011;700;51.906;8.404;2022-07-29T07:45:12;4.10;;;1.70;;
1410;SDS011;700;51.906;8.404;2022-07-29T07:50:13;4.40;;;2.20;;
1410;SDS011;700;51.906;8.404;2022-07-29T07:55:14;5.43;;;1.97;;
1410;SDS011;700;51.906;8.404;2022-07-29T08:00:17;6.40;;;3.00;;
1410;SDS011;700;51.906;8.404;2022-07-29T08:05:18;5.10;;;2.53;;
1410;SDS011;700;51.906;8.404;2022-07-29T08:10:21;4.30;;;1.90;;
1410;SDS011;700;51.906;8.404;2022-07-29T08:15:40;2.80;;;1.53;;
1410;SDS011;700;51.906;8.404;2022-07-29T08:20:52;5.57;;;2.23;;
1410;SDS011;700;51.906;8.404;2022-07-29T08:26:18;6.63;;;2.07;;
1410;SDS011;700;51.906;8.404;2022-07-29T08:31:20;4.60;;;1.90;;
1410;SDS011;700;51.906;8.404;2022-07-29T08:36:21;8.50;;;2.30;;
1410;SDS011;700;51.906;8.404;2022-07-29T08:41:22;4.07;;;2.23;;
1410;SDS011;700;51.906;8.404;2022-07-29T08:46:23;6.30;;;2.17;;
1410;SDS011;700;51.906;8.404;2022-07-29T08:51:23;3.23;;;1.97;;
1410;SDS011;700;51.906;8.404;2022-07-29T08:56:28;5.60;;;2.30;;
1410;SDS011;700;51.906;8.404;2022-07-29T09:01:32;5.90;;;2.03;;
1410;SDS011;700;51.906;8.404;2022-07-29T09:06:34;6.57;;;2.27;;
1410;SDS011;700;51.906;8.404;2022-07-29T09:11:42;7.53;;;2.43;;
1410;SDS011;700;51.906;8.404;2022-07-29T09:22:04;3.90;;;2.10;;
1410;SDS011;700;51.906;8.404;2022-07-29T09:32:21;5.57;;;1.60;;
1410;SDS011;700;51.906;8.404;2022-07-29T09:37:25;7.37;;;2.20;;
1410;SDS011;700;51.906;8.404;2022-07-29T09:42:55;6.07;;;2.13;;
1410;SDS011;700;51.906;8.404;2022-07-29T09:47:57;3.97;;;2.10;;
1410;SDS011;700;51.906;8.404;2022-07-29T10:06:12;5.90;;;2.43;;
1410;SDS011;700;51.906;8.404;2022-07-29T10:11:33;4.37;;;2.47;;
1410;SDS011;700;51.906;8.404;2022-07-29T10:16:45;3.10;;;1.87;;
1410;SDS011;700;51.906;8.404;2022-07-29T10:21:46;5.43;;;2.20;;
1410;SDS011;700;51.906;8.404;2022-07-29T10:27:10;3.63;;;2.30;;
1410;SDS011;700;51.906;8.404;2022-07-29T10:43:57;3.93;;;2.10;;
1410;SDS011;700;51.906;8.404;2022-07-29T10:49:07;4.07;;;1.97;;
1410;SDS011;700;51.906;8.404;2022-07-29T10:54:16;3.70;;;2.00;;
1410;SDS011;700;51.906;8.404;2022-07-29T11:09:54;2.50;;;1.93;;
1410;SDS011;700;51.906;8.404;2022-07-29T11:15:12;4.67;;;1.90;;
1410;SDS011;700;51.906;8.404;2022-07-29T11:25:46;4.37;;;2.70;;
1410;SDS011;700;51.906;8.404;2022-07-29T11:36:39;3.73;;;2.27;;
1410;SDS011;700;51.906;8.404;2022-07-29T11:47:19;5.57;;;2.13;;
1410;SDS011;700;51.906;8.404;2022-07-29T11:52:20;5.00;;;2.10;;
1410;SDS011;700;51.906;8.404;2022-07-29T11:57:21;3.80;;;2.13;;
1410;SDS011;700;51.906;8.404;2022-07-29T12:02:22;4.20;;;2.23;;
1410;SDS011;700;51.906;8.404;2022-07-29T12:07:38;4.00;;;2.10;;
1410;SDS011;700;51.906;8.404;2022-07-29T12:12:39;4.40;;;1.77;;
1410;SDS011;700;51.906;8.404;2022-07-29T12:17:40;4.50;;;1.90;;
1410;SDS011;700;51.906;8.404;2022-07-29T12:22:41;4.50;;;2.20;;
1410;SDS011;700;51.906;8.404;2022-07-29T12:27:46;4.87;;;3.00;;
1410;SDS011;700;51.906;8.404;2022-07-29T12:32:47;5.17;;;2.43;;
1410;SDS011;700;51.906;8.404;2022-07-29T12:37:48;4.93;;;2.60;;
1410;SDS011;700;51.906;8.404;2022-07-29T12:48:10;3.80;;;2.30;;
1410;SDS011;700;51.906;8.404;2022-07-29T12:53:12;4.80;;;2.30;;
1410;SDS011;700;51.906;8.404;2022-07-29T12:58:24;5.63;;;2.70;;
1410;SDS011;700;51.906;8.404;2022-07-29T13:03:57;3.17;;;2.30;;
1410;SDS011;700;51.906;8.404;2022-07-29T13:09:01;4.63;;;2.30;;
1410;SDS011;700;51.906;8.404;2022-07-29T13:14:07;3.60;;;2.30;;
1410;SDS011;700;51.906;8.404;2022-07-29T13:19:11;4.10;;;2.70;;
1410;SDS011;700;51.906;8.404;2022-07-29T13:24:12;5.17;;;2.50;;
1410;SDS011;700;51.906;8.404;2022-07-29T13:29:13;3.90;;;2.47;;
1410;SDS011;700;51.906;8.404;2022-07-29T13:34:16;7.00;;;3.17;;
1410;SDS011;700;51.906;8.404;2022-07-29T13:39:18;3.80;;;2.57;;
1410;SDS011;700;51.906;8.404;2022-07-29T13:44:19;6.23;;;2.87;;
1410;SDS011;700;51.906;8.404;2022-07-29T13:49:22;4.40;;;2.50;;
1410;SDS011;700;51.906;8.404;2022-07-29T13:54:22;4.90;;;2.33;;
1410;SDS011;700;51.906;8.404;2022-07-29T13:59:23;9.43;;;3.10;;
1410;SDS011;700;51.906;8.404;2022-07-29T14:04:24;4.20;;;2.67;;
1410;SDS011;700;51.906;8.404;2022-07-29T14:09:25;5.10;;;2.40;;
1410;SDS011;700;51.906;8.404;2022-07-29T14:14:26;5.93;;;2.67;;
1410;SDS011;700;51.906;8.404;2022-07-29T14:19:26;6.00;;;3.43;;
1410;SDS011;700;51.906;8.404;2022-07-29T14:24:27;5.50;;;3.13;;
1410;SDS011;700;51.906;8.404;2022-07-29T14:29:28;5.77;;;2.83;;
1410;SDS011;700;51.906;8.404;2022-07-29T14:34:31;4.57;;;3.10;;
1410;SDS011;700;51.906;8.404;2022-07-29T14:39:31;5.43;;;3.00;;
1410;SDS011;700;51.906;8.404;2022-07-29T14:44:35;4.00;;;2.77;;
1410;SDS011;700;51.906;8.404;2022-07-29T14:49:38;4.23;;;2.90;;
1410;SDS011;700;51.906;8.404;2022-07-29T14:54:39;5.57;;;3.83;;
1410;SDS011;700;51.906;8.404;2022-07-29T14:59:42;7.10;;;3.17;;
1410;SDS011;700;51.906;8.404;2022-07-29T15:04:43;4.73;;;3.00;;
1410;SDS011;700;51.906;8.404;2022-07-29T15:09:47;6.70;;;3.00;;
1410;SDS011;700;51.906;8.404;2022-07-29T15:14:50;6.67;;;3.07;;
1410;SDS011;700;51.906;8.404;2022-07-29T15:19:51;8.30;;;3.33;;
1410;SDS011;700;51.906;8.404;2022-07-29T15:24:52;7.83;;;3.13;;
1410;SDS011;700;51.906;8.404;2022-07-29T15:29:52;4.70;;;3.00;;
1410;SDS011;700;51.906;8.404;2022-07-29T15:34:53;5.00;;;3.10;;
1410;SDS011;700;51.906;8.404;2022-07-29T15:39:54;3.20;;;2.80;;
1410;SDS011;700;51.906;8.404;2022-07-29T15:44:57;6.60;;;3.50;;
1410;SDS011;700;51.906;8.404;2022-07-29T15:49:57;6.50;;;3.47;;
1410;SDS011;700;51.906;8.404;2022-07-29T15:54:58;8.30;;;2.80;;
1410;SDS011;700;51.906;8.404;2022-07-29T15:59:59;5.13;;;2.63;;
1410;SDS011;700;51.906;8.404;2022-07-29T16:04:59;5.90;;;2.80;;
1410;SDS011;700;51.906;8.404;2022-07-29T16:10:03;10.23;;;3.73;;
1410;SDS011;700;51.906;8.404;2022-07-29T16:15:09;6.70;;;3.10;;
1410;SDS011;700;51.906;8.404;2022-07-29T16:20:10;4.40;;;2.80;;
1410;SDS011;700;51.906;8.404;2022-07-29T16:25:14;7.27;;;3.53;;
1410;SDS011;700;51.906;8.404;2022-07-29T16:30:14;9.00;;;2.77;;
1410;SDS011;700;51.906;8.404;2022-07-29T16:35:17;8.03;;;3.10;;
1410;SDS011;700;51.906;8.404;2022-07-29T16:40:20;6.83;;;3.00;;
1410;SDS011;700;51.906;8.404;2022-07-29T16:45:21;5.57;;;2.63;;
1410;SDS011;700;51.906;8.404;2022-07-29T16:50:24;5.63;;;2.30;;
1410;SDS011;700;51.906;8.404;2022-07-29T16:55:26;5.23;;;2.77;;
1410;SDS011;700;51.906;8.404;2022-07-29T17:00:29;10.83;;;3.20;;
1410;SDS011;700;51.906;8.404;2022-07-29T17:05:32;7.83;;;3.07;;
1410;SDS011;700;51.906;8.404;2022-07-29T17:10:33;8.90;;;3.40;;
1410;SDS011;700;51.906;8.404;2022-07-29T17:15:34;8.23;;;2.97;;
1410;SDS011;700;51.906;8.404;2022-07-29T17:20:34;9.80;;;3.50;;
1410;SDS011;700;51.906;8.404;2022-07-29T17:25:35;6.80;;;3.10;;
1410;SDS011;700;51.906;8.404;2022-07-29T17:30:36;7.93;;;3.80;;
1410;SDS011;700;51.906;8.404;2022-07-29T17:35:37;5.30;;;3.50;;
1410;SDS011;700;51.906;8.404;2022-07-29T17:40:56;7.90;;;4.10;;
1410;SDS011;700;51.906;8.404;2022-07-29T17:45:57;12.40;;;6.00;;
1410;SDS011;700;51.906;8.404;2022-07-29T17:51:03;9.03;;;4.53;;
1410;SDS011;700;51.906;8.404;2022-07-29T17:56:04;10.83;;;4.80;;
1410;SDS011;700;51.906;8.404;2022-07-29T18:01:04;8.10;;;4.30;;
1410;SDS011;700;51.906;8.404;2022-07-29T18:06:07;9.63;;;4.50;;
1410;SDS011;700;51.906;8.404;2022-07-29T18:11:12;7.30;;;4.73;;
1410;SDS011;700;51.906;8.404;2022-07-29T18:16:16;7.40;;;4.60;;
1410;SDS011;700;51.906;8.404;2022-07-29T18:21:16;6.97;;;4.27;;
1410;SDS011;700;51.906;8.404;2022-07-29T18:26:17;5.80;;;4.27;;
1410;SDS011;700;51.906;8.404;2022-07-29T18:31:18;10.47;;;4.93;;
1410;SDS011;700;51.906;8.404;2022-07-29T18:36:18;10.43;;;4.43;;
1410;SDS011;700;51.906;8.404;2022-07-29T18:41:21;8.17;;;4.73;;
1410;SDS011;700;51.906;8.404;2022-07-29T18:46:24;8.73;;;5.27;;
1410;SDS011;700;51.906;8.404;2022-07-29T18:51:27;7.70;;;4.80;;
1410;SDS011;700;51.906;8.404;2022-07-29T18:56:28;8.00;;;5.00;;
1410;SDS011;700;51.906;8.404;2022-07-29T19:01:29;7.33;;;5.97;;
1410;SDS011;700;51.906;8.404;2022-07-29T19:06:35;8.93;;;5.73;;
1410;SDS011;700;51.906;8.404;2022-07-29T19:11:39;11.90;;;5.70;;
1410;SDS011;700;51.906;8.404;2022-07-29T19:16:42;6.40;;;4.97;;
1410;SDS011;700;51.906;8.404;2022-07-29T19:21:45;8.83;;;5.23;;
1410;SDS011;700;51.906;8.404;2022-07-29T19:26:49;7.50;;;5.50;;
1410;SDS011;700;51.906;8.404;2022-07-29T19:31:52;8.93;;;5.87;;
1410;SDS011;700;51.906;8.404;2022-07-29T19:36:58;7.90;;;5.50;;
1410;SDS011;700;51.906;8.404;2022-07-29T19:41:58;7.90;;;5.73;;
1410;SDS011;700;51.906;8.404;2022-07-29T19:46:59;6.90;;;6.20;;
1410;SDS011;700;51.906;8.404;2022-07-29T19:52:00;9.63;;;7.37;;
1410;SDS011;700;51.906;8.404;2022-07-29T19:57:01;11.90;;;7.80;;
1410;SDS011;700;51.906;8.404;2022-07-29T20:02:02;10.50;;;8.40;;
1410;SDS011;700;51.906;8.404;2022-07-29T20:07:05;13.50;;;7.80;;
1410;SDS011;700;51.906;8.404;2022-07-29T20:12:07;11.37;;;7.87;;
1410;SDS011;700;51.906;8.404;2022-07-29T20:17:10;8.60;;;7.53;;
1410;SDS011;700;51.906;8.404;2022-07-29T20:22:14;10.17;;;8.00;;
1410;SDS011;700;51.906;8.404;2022-07-29T20:27:17;14.20;;;8.73;;
1410;SDS011;700;51.906;8.404;2022-07-29T20:32:20;14.43;;;8.93;;
1410;SDS011;700;51.906;8.404;2022-07-29T20:37:21;11.97;;;9.30;;
1410;SDS011;700;51.906;8.404;2022-07-29T20:42:22;8.73;;;7.60;;
1410;SDS011;700;51.906;8.404;2022-07-29T20:47:23;9.17;;;8.27;;
1410;SDS011;700;51.906;8.404;2022-07-29T20:52:24;9.30;;;7.90;;
1410;SDS011;700;51.906;8.404;2022-07-29T20:57:29;13.43;;;8.20;;
1410;SDS011;700;51.906;8.404;2022-07-29T21:02:29;12.10;;;8.30;;
1410;SDS011;700;51.906;8.404;2022-07-29T21:07:32;10.30;;;8.60;;
1410;SDS011;700;51.906;8.404;2022-07-29T21:12:35;13.17;;;7.97;;
1410;SDS011;700;51.906;8.404;2022-07-29T21:17:38;9.20;;;7.77;;
1410;SDS011;700;51.906;8.404;2022-07-29T21:22:47;8.33;;;7.43;;
1410;SDS011;700;51.906;8.404;2022-07-29T21:27:48;8.90;;;8.00;;
1410;SDS011;700;51.906;8.404;2022-07-29T21:33:07;10.37;;;7.50;;
1410;SDS011;700;51.906;8.404;2022-07-29T21:38:10;8.83;;;7.67;;
1410;SDS011;700;51.906;8.404;2022-07-29T21:43:15;10.57;;;9.00;;
1410;SDS011;700;51.906;8.404;2022-07-29T21:48:19;11.97;;;8.97;;
1410;SDS011;700;51.906;8.404;2022-07-29T21:53:20;10.80;;;8.73;;
1410;SDS011;700;51.906;8.404;2022-07-29T21:58:24;10.57;;;9.57;;
1410;SDS011;700;51.906;8.404;2022-07-29T22:03:25;11.73;;;8.97;;
1410;SDS011;700;51.906;8.404;2022-07-29T22:08:28;11.40;;;9.13;;
1410;SDS011;700;51.906;8.404;2022-07-29T22:13:31;10.40;;;9.40;;
1410;SDS011;700;51.906;8.404;2022-07-29T22:18:31;10.97;;;9.30;;
1410;SDS011;700;51.906;8.404;2022-07-29T22:23:32;10.30;;;9.17;;
1410;SDS011;700;51.906;8.404;2022-07-29T22:28:33;11.60;;;10.50;;
1410;SDS011;700;51.906;8.404;2022-07-29T22:33:33;11.60;;;9.10;;
1410;SDS011;700;51.906;8.404;2022-07-29T22:38:36;10.77;;;9.77;;
1410;SDS011;700;51.906;8.404;2022-07-29T22:43:39;10.93;;;9.80;;
1410;SDS011;700;51.906;8.404;2022-07-29T22:48:40;11.90;;;10.63;;
1410;SDS011;700;51.906;8.404;2022-07-29T22:53:40;11.13;;;9.90;;
1410;SDS011;700;51.906;8.404;2022-07-29T22:58:41;12.17;;;10.83;;
1410;SDS011;700;51.906;8.404;2022-07-29T23:03:44;12.23;;;10.30;;
1410;SDS011;700;51.906;8.404;2022-07-29T23:08:44;12.07;;;10.80;;
1410;SDS011;700;51.906;8.404;2022-07-29T23:13:48;11.10;;;10.00;;
1410;SDS011;700;51.906;8.404;2022-07-29T23:18:51;11.33;;;10.23;;
1410;SDS011;700;51.906;8.404;2022-07-29T23:23:52;13.57;;;11.00;;
1410;SDS011;700;51.906;8.404;2022-07-29T23:28:52;11.37;;;10.13;;
1410;SDS011;700;51.906;8.404;2022-07-29T23:33:58;13.40;;;12.10;;
1410;SDS011;700;51.906;8.404;2022-07-29T23:38:58;13.80;;;12.50;;
1410;SDS011;700;51.906;8.404;2022-07-29T23:43:59;13.97;;;12.67;;
1410;SDS011;700;51.906;8.404;2022-07-29T23:49:00;13.10;;;11.70;;
1410;SDS011;700;51.906;8.404;2022-07-29T23:54:05;14.40;;;13.10;;
1410;SDS011;700;51.906;8.404;2022-07-29T23:59:08;14.63;;;13.23;;
